Time;durP1;ratioP1;P1;durP2;ratioP2;P2;SDS_P1;SDS_P2;PMS_P1;PMS_P2;Temp;Humidity;BMP_temperature;BMP_pressure;BME280_temperature;BME280_humidity;BME280_pressure;Samples;Min_cycle;Max_cycle;Signal;HPM_P1;HPM_P2
2024/01/06 00:00:52;;;;;;;12.35;7.80;;;;;;;;;;4990634;28;20387;-55
2024/01/06 00:03:18;;;;;;;11.50;7.82;;;;;;;;;;4987590;28;20070;-55
2024/01/06 00:05:44;;;;;;;10.50;7.07;;;;;;;;;;4987282;28;20089;-52
2024/01/06 00:08:10;;;;;;;10.57;6.80;;;;;;;;;;4988855;28;20038;-53
2024/01/06 00:10:36;;;;;;;11.15;7.18;;;;;;;;;;4991074;28;20074;-56
2024/01/06 00:13:02;;;;;;;10.25;6.82;;;3.80;99.90;;;;;;4990865;28;20084;-52
2024/01/06 00:15:28;;;;;;;11.43;7.13;;;;;;;;;;4989025;28;20040;-51
2024/01/06 00:17:54;;;;;;;13.18;7.53;;;;;;;;;;4988257;28;20392;-52
2024/01/06 00:20:20;;;;;;;12.30;7.95;;;;;;;;;;4987557;28;20034;-52
2024/01/06 00:22:46;;;;;;;10.57;7.18;;;;;;;;;;4986242;28;20579;-54
2024/01/06 00:25:12;;;;;;;11.77;7.78;;;;;;;;;;4986150;28;20049;-52
2024/01/06 00:27:38;;;;;;;11.38;7.43;;;;;;;;;;4987816;28;20125;-51
2024/01/06 00:30:04;;;;;;;12.82;8.10;;;;;;;;;;4985868;28;21725;-51
2024/01/06 00:32:30;;;;;;;10.50;7.15;;;;;;;;;;4989456;28;20515;-53
2024/01/06 00:34:56;;;;;;;11.30;6.93;;;;;;;;;;4989574;28;20196;-51
2024/01/06 00:37:22;;;;;;;13.55;8.15;;;;;;;;;;4989183;28;20081;-50
2024/01/06 00:39:48;;;;;;;10.98;6.75;;;;;;;;;;4989865;28;20125;-53
2024/01/06 00:42:14;;;;;;;11.20;7.28;;;;;;;;;;4990414;28;20121;-50
2024/01/06 00:44:39;;;;;;;13.25;7.20;;;3.60;99.90;;;;;;4990144;28;20038;-51
2024/01/06 00:47:05;;;;;;;14.45;9.23;;;;;;;;;;4985903;28;20201;-52
2024/01/06 00:49:31;;;;;;;12.27;7.88;;;;;;;;;;4988299;28;20125;-49
2024/01/06 00:51:57;;;;;;;12.10;7.47;;;4.00;99.90;;;;;;4988322;28;20046;-49
2024/01/06 00:54:22;;;;;;;14.38;8.23;;;3.80;99.90;;;;;;4983995;28;20398;-48
2024/01/06 00:56:48;;;;;;;13.75;8.73;;;;;;;;;;4984681;28;20125;-51
2024/01/06 00:59:14;;;;;;;12.73;7.60;;;;;;;;;;4988538;28;20042;-51
2024/01/06 01:01:40;;;;;;;11.57;7.68;;;;;;;;;;4989297;28;20038;-52
2024/01/06 01:04:06;;;;;;;13.32;8.32;;;;;;;;;;4988787;28;20061;-51
2024/01/06 01:06:32;;;;;;;11.95;7.78;;;;;;;;;;4988771;28;20050;-49
2024/01/06 01:08:58;;;;;;;11.52;7.55;;;;;;;;;;4984794;28;20080;-51
2024/01/06 01:11:24;;;;;;;14.40;7.80;;;;;;;;;;4987883;28;20105;-49
2024/01/06 01:13:50;;;;;;;12.18;7.45;;;3.70;99.90;;;;;;4988199;28;20130;-49
2024/01/06 01:16:16;;;;;;;11.75;7.05;;;3.80;99.90;;;;;;4988339;28;20117;-49
2024/01/06 01:18:42;;;;;;;12.23;6.72;;;;;;;;;;4984039;28;20536;-50
2024/01/06 01:21:08;;;;;;;12.90;7.20;;;;;;;;;;4987975;28;20545;-49
2024/01/06 01:23:34;;;;;;;12.63;8.20;;;;;;;;;;4987325;28;20042;-49
2024/01/06 01:26:00;;;;;;;11.25;7.20;;;;;;;;;;4983447;28;20049;-50
2024/01/06 01:28:26;;;;;;;11.02;7.65;;;;;;;;;;4979547;28;20043;-49
2024/01/06 01:30:52;;;;;;;10.95;6.80;;;;;;;;;;4984364;28;20088;-49
2024/01/06 01:33:18;;;;;;;12.60;6.82;;;;;;;;;;4987808;28;20038;-48
2024/01/06 01:35:44;;;;;;;11.15;7.75;;;;;;;;;;4986923;28;20034;-49
2024/01/06 01:38:10;;;;;;;12.05;7.72;;;;;;;;;;4984617;28;20665;-49
2024/01/06 01:40:36;;;;;;;11.30;6.88;;;;;;;;;;4987334;28;20070;-49
2024/01/06 01:43:02;;;;;;;11.25;7.25;;;;;;;;;;4988564;28;20090;-49
2024/01/06 01:45:28;;;;;;;12.68;7.55;;;;;;;;;;4983647;28;20137;-52
2024/01/06 01:47:54;;;;;;;14.00;7.72;;;;;;;;;;4985791;28;20790;-49
2024/01/06 01:50:22;;;;;;;12.30;7.80;;;;;;;;;;4986305;28;20096;-51
2024/01/06 01:52:48;;;;;;;11.93;7.28;;;3.60;99.90;;;;;;4986901;28;20055;-50
2024/01/06 01:55:14;;;;;;;12.52;7.95;;;3.70;99.90;;;;;;4984835;28;20528;-51
2024/01/06 01:57:40;;;;;;;13.50;7.25;;;;;;;;;;4986482;28;20454;-49
2024/01/06 02:00:07;;;;;;;11.82;7.68;;;;;;;;;;4986874;28;20046;-50
2024/01/06 02:02:32;;;;;;;13.00;8.13;;;3.60;99.90;;;;;;4988605;28;20097;-49
2024/01/06 02:04:59;;;;;;;14.52;8.02;;;;;;;;;;4989066;28;20517;-49
2024/01/06 02:07:25;;;;;;;18.00;8.20;;;;;;;;;;4990022;28;20049;-50
2024/01/06 02:09:51;;;;;;;12.95;8.57;;;3.70;99.90;;;;;;4991870;28;20038;-49
2024/01/06 02:12:16;;;;;;;12.85;7.85;;;3.70;99.90;;;;;;4991164;28;20117;-49
2024/01/06 02:14:43;;;;;;;16.80;9.13;;;;;;;;;;4993052;28;20062;-51
2024/01/06 02:17:09;;;;;;;14.05;9.25;;;;;;;;;;4992245;28;20049;-54
2024/01/06 02:19:35;;;;;;;13.00;7.82;;;;;;;;;;4990303;28;20042;-54
2024/01/06 02:22:01;;;;;;;17.25;8.73;;;;;;;;;;4989375;28;20042;-53
2024/01/06 02:24:27;;;;;;;14.10;8.18;;;;;;;;;;4992222;28;20380;-50
2024/01/06 02:26:53;;;;;;;18.50;9.07;;;;;;;;;;4993315;28;20050;-51
2024/01/06 02:29:19;;;;;;;13.43;8.43;;;;;;;;;;4991732;28;20524;-51
2024/01/06 02:31:45;;;;;;;15.65;9.40;;;;;;;;;;4991191;28;20057;-52
2024/01/06 02:34:11;;;;;;;14.35;8.25;;;;;;;;;;4992621;28;20038;-52
2024/01/06 02:36:37;;;;;;;14.10;8.45;;;;;;;;;;4991086;28;20160;-52
2024/01/06 02:39:03;;;;;;;13.80;8.63;;;3.80;99.90;;;;;;4991579;28;20043;-52
2024/01/06 02:41:28;;;;;;;19.00;8.60;;;3.80;99.90;;;;;;4990750;28;20386;-53
2024/01/06 02:43:56;;;;;;;13.20;8.60;;;;;;;;;;4991486;28;20049;-51
2024/01/06 02:46:22;;;;;;;13.63;8.32;;;;;;;;;;4992866;28;20137;-53
2024/01/06 02:48:48;;;;;;;15.50;8.82;;;3.80;99.90;;;;;;4988508;28;20042;-49
2024/01/06 02:51:13;;;;;;;16.98;9.13;;;4.00;99.90;;;;;;4990072;28;20041;-49
2024/01/06 02:53:39;;;;;;;12.63;8.05;;;;;;;;;;4989153;28;20045;-53
2024/01/06 02:56:09;;;;;;;14.68;8.50;;;;;;;;;;4987141;28;20066;-49
2024/01/06 02:58:35;;;;;;;17.15;9.00;;;;;;;;;;4989071;28;20096;-50
2024/01/06 03:01:01;;;;;;;13.73;7.53;;;;;;;;;;4988697;28;20038;-52
2024/01/06 03:03:27;;;;;;;15.07;8.18;;;;;;;;;;4988004;28;20121;-53
2024/01/06 03:05:53;;;;;;;14.88;7.38;;;3.80;99.90;;;;;;4991589;28;20045;-51
2024/01/06 03:08:19;;;;;;;15.35;7.50;;;3.80;99.90;;;;;;4991473;28;20557;-52
2024/01/06 03:10:45;;;;;;;13.20;8.30;;;;;;;;;;4989539;28;20589;-49
2024/01/06 03:13:11;;;;;;;15.35;8.55;;;;;;;;;;4989374;28;20398;-51
2024/01/06 03:15:37;;;;;;;14.90;8.35;;;;;;;;;;4992238;28;20034;-49
2024/01/06 03:18:03;;;;;;;12.95;7.65;;;;;;;;;;4990090;28;20053;-53
2024/01/06 03:20:28;;;;;;;13.15;8.23;;;3.80;99.90;;;;;;4991346;28;20049;-49
2024/01/06 03:22:54;;;;;;;12.23;7.30;;;3.90;99.90;;;;;;4991053;28;20042;-49
2024/01/06 03:25:20;;;;;;;12.02;7.55;;;;;;;;;;4989239;28;20037;-50
2024/01/06 03:27:46;;;;;;;12.45;8.02;;;;;;;;;;4990588;28;20042;-50
2024/01/06 03:30:12;;;;;;;16.90;7.88;;;;;;;;;;4990939;28;20057;-49
2024/01/06 03:32:38;;;;;;;14.45;7.63;;;;;;;;;;4990901;28;20042;-48
2024/01/06 03:35:06;;;;;;;14.18;7.50;;;;;;;;;;4989876;28;20118;-50
2024/01/06 03:37:33;;;;;;;13.38;7.38;;;;;;;;;;4990725;28;20042;-50
2024/01/06 03:39:59;;;;;;;12.73;7.20;;;;;;;;;;4988594;28;20046;-51
2024/01/06 03:42:25;;;;;;;12.80;7.28;;;;;;;;;;4990015;28;20044;-52
2024/01/06 03:44:51;;;;;;;14.00;7.28;;;;;;;;;;4990312;28;20201;-50
2024/01/06 03:47:17;;;;;;;13.65;6.80;;;;;;;;;;4989727;28;20038;-49
2024/01/06 03:49:43;;;;;;;11.52;6.47;;;;;;;;;;4988365;28;20465;-53
2024/01/06 03:52:09;;;;;;;10.90;7.15;;;;;;;;;;4991048;28;20042;-50
2024/01/06 03:54:35;;;;;;;13.32;7.38;;;;;;;;;;4987241;28;20039;-50
2024/01/06 03:57:01;;;;;;;13.68;7.68;;;;;;;;;;4990111;28;20065;-51
2024/01/06 03:59:27;;;;;;;12.25;7.40;;;;;;;;;;4990310;28;20441;-49
2024/01/06 04:01:53;;;;;;;11.27;7.55;;;4.00;99.90;;;;;;4990495;28;20046;-49
2024/01/06 04:04:20;;;;;;;12.38;7.13;;;;;;;;;;4991256;28;20061;-49
2024/01/06 04:06:46;;;;;;;11.27;6.20;;;;;;;;;;4989543;28;20050;-49
2024/01/06 04:09:12;;;;;;;11.13;6.18;;;;;;;;;;4990374;28;20034;-51
2024/01/06 04:11:38;;;;;;;13.85;7.38;;;;;;;;;;4989971;28;20844;-49
2024/01/06 04:14:04;;;;;;;10.13;6.82;;;;;;;;;;4991442;28;20042;-50
2024/01/06 04:16:30;;;;;;;11.02;6.53;;;;;;;;;;4986647;28;20045;-49
2024/01/06 04:18:56;;;;;;;13.52;6.65;;;3.90;99.90;;;;;;4989530;28;20073;-49
2024/01/06 04:21:22;;;;;;;12.45;6.85;;;;;;;;;;4990763;28;20493;-52
2024/01/06 04:23:47;;;;;;;14.18;7.78;;;3.90;99.90;;;;;;4991012;28;20053;-50
2024/01/06 04:26:13;;;;;;;11.82;6.50;;;4.00;99.90;;;;;;4990282;28;20042;-50
2024/01/06 04:28:39;;;;;;;16.50;7.20;;;3.70;99.90;;;;;;4990252;28;20493;-48
2024/01/06 04:31:05;;;;;;;12.43;7.15;;;;;;;;;;4990614;28;20030;-50
2024/01/06 04:33:31;;;;;;;9.38;6.68;;;;;;;;;;4989728;28;20031;-50
2024/01/06 04:35:58;;;;;;;13.18;7.18;;;;;;;;;;4989672;28;20050;-49
2024/01/06 04:38:24;;;;;;;10.25;5.75;;;;;;;;;;4987313;28;20053;-50
2024/01/06 04:40:50;;;;;;;13.65;6.35;;;3.80;99.90;;;;;;4989425;28;20050;-49
2024/01/06 04:43:16;;;;;;;12.73;7.00;;;;;;;;;;4985694;28;20042;-53
2024/01/06 04:45:42;;;;;;;10.10;6.10;;;;;;;;;;4989728;28;20398;-54
2024/01/06 04:48:08;;;;;;;16.30;7.18;;;3.90;99.90;;;;;;4990613;28;20038;-53
2024/01/06 04:50:34;;;;;;;14.00;7.07;;;;;;;;;;4990125;28;20476;-53
2024/01/06 04:53:00;;;;;;;15.88;8.18;;;;;;;;;;4989044;28;20038;-53
2024/01/06 04:55:25;;;;;;;13.00;6.78;;;4.00;99.90;;;;;;4989893;28;20050;-54
2024/01/06 04:57:51;;;;;;;15.93;7.65;;;;;;;;;;4988751;28;20126;-51
2024/01/06 05:00:17;;;;;;;14.75;7.13;;;;;;;;;;4989753;28;20126;-53
2024/01/06 05:02:44;;;;;;;12.90;8.38;;;;;;;;;;4989363;28;20429;-51
2024/01/06 05:05:10;;;;;;;17.20;8.02;;;;;;;;;;4988911;28;20045;-49
2024/01/06 05:07:36;;;;;;;16.88;7.18;;;;;;;;;;4990042;28;20088;-53
2024/01/06 05:10:02;;;;;;;13.07;7.15;;;3.90;99.90;;;;;;4988941;28;20058;-50
2024/01/06 05:12:28;;;;;;;17.55;8.70;;;;;;;;;;4987923;28;20176;-51
2024/01/06 05:14:54;;;;;;;14.10;8.48;;;;;;;;;;4990520;28;20064;-49
2024/01/06 05:17:20;;;;;;;14.40;7.78;;;;;;;;;;4988517;28;20390;-49
2024/01/06 05:19:46;;;;;;;15.35;8.00;;;;;;;;;;4987513;28;20093;-52
2024/01/06 05:22:12;;;;;;;13.15;6.97;;;;;;;;;;4986583;28;20042;-52
2024/01/06 05:24:38;;;;;;;15.55;7.82;;;;;;;;;;4988139;28;20097;-49
2024/01/06 05:27:04;;;;;;;13.80;7.63;;;3.80;99.90;;;;;;4986863;28;20046;-49
2024/01/06 05:29:30;;;;;;;15.07;8.20;;;3.90;99.90;;;;;;4987478;28;20038;-52
2024/01/06 05:31:56;;;;;;;14.98;8.10;;;;;;;;;;4980838;28;20088;-50
2024/01/06 05:34:22;;;;;;;12.85;7.53;;;;;;;;;;4986267;28;20056;-52
2024/01/06 05:36:48;;;;;;;16.98;8.02;;;;;;;;;;4980000;28;20046;-50
2024/01/06 05:39:14;;;;;;;17.23;8.18;;;;;;;;;;4985913;28;20041;-53
2024/01/06 05:41:40;;;;;;;23.25;8.15;;;3.90;99.90;;;;;;4983289;28;20506;-52
2024/01/06 05:44:07;;;;;;;14.20;7.90;;;;;;;;;;4987185;28;20130;-49
2024/01/06 05:46:34;;;;;;;11.35;6.60;;;;;;;;;;4987255;28;20536;-49
2024/01/06 05:48:59;;;;;;;13.80;7.85;;;4.00;99.90;;;;;;4987367;28;20116;-51
2024/01/06 05:51:25;;;;;;;15.00;7.00;;;;;;;;;;4988184;28;20042;-52
2024/01/06 05:53:51;;;;;;;13.60;7.32;;;;;;;;;;4990053;28;20046;-49
2024/01/06 05:56:27;;;;;;;15.27;7.63;;;;;;;;;;4988758;28;20126;-49
2024/01/06 05:58:53;;;;;;;16.00;8.57;;;;;;;;;;4983516;28;20601;-49
2024/01/06 06:01:20;;;;;;;16.13;7.97;;;4.20;99.90;;;;;;4988890;28;20464;-49
2024/01/06 06:03:50;;;;;;;14.27;7.55;;;;;;;;;;4989911;28;20038;-53
2024/01/06 06:06:16;;;;;;;12.02;6.75;;;;;;;;;;4989201;28;20042;-50
2024/01/06 06:08:43;;;;;;;13.38;8.02;;;;;;;;;;4989297;28;20038;-50
2024/01/06 06:11:12;;;;;;;16.08;8.30;;;;;;;;;;4989312;28;20402;-50
2024/01/06 06:13:39;;;;;;;15.73;9.27;;;;;;;;;;4987867;28;20105;-49
2024/01/06 06:16:05;;;;;;;14.73;9.80;;;4.00;99.90;;;;;;4985194;28;20047;-49
2024/01/06 06:18:32;;;;;;;16.05;10.73;;;;;;;;;;4982515;28;20038;-50
2024/01/06 06:20:58;;;;;;;15.80;9.68;;;;;;;;;;4987708;28;20058;-50
2024/01/06 06:23:24;;;;;;;21.88;14.05;;;;;;;;;;4988819;28;20042;-50
2024/01/06 06:25:51;;;;;;;18.25;11.25;;;3.90;99.90;;;;;;4986469;28;20096;-53
2024/01/06 06:28:17;;;;;;;17.80;10.57;;;;;;;;;;4988235;28;20104;-50
2024/01/06 06:30:43;;;;;;;17.38;9.65;;;;;;;;;;4988675;28;20486;-50
2024/01/06 06:33:09;;;;;;;13.88;8.27;;;;;;;;;;4984727;28;20078;-50
2024/01/06 06:35:35;;;;;;;25.90;8.88;;;;;;;;;;4989144;28;20041;-50
2024/01/06 06:38:01;;;;;;;14.48;7.60;;;;;;;;;;4986584;28;20038;-49
2024/01/06 06:40:27;;;;;;;10.95;7.75;;;;;;;;;;4987875;28;20453;-53
2024/01/06 06:42:53;;;;;;;16.98;7.95;;;;;;;;;;4989122;28;20517;-50
2024/01/06 06:45:22;;;;;;;15.85;7.57;;;;;;;;;;4987942;28;20501;-50
2024/01/06 06:47:50;;;;;;;15.73;7.38;;;4.00;99.90;;;;;;4986175;28;20050;-50
2024/01/06 06:50:20;;;;;;;12.40;7.07;;;;;;;;;;4985921;28;20505;-50
2024/01/06 06:52:47;;;;;;;16.35;8.00;;;;;;;;;;4991458;28;20046;-49
2024/01/06 06:55:12;;;;;;;15.35;7.78;;;3.90;99.90;;;;;;4991992;28;20577;-50
2024/01/06 06:57:39;;;;;;;13.20;7.32;;;;;;;;;;4991488;28;20118;-50
2024/01/06 07:00:07;;;;;;;13.07;7.65;;;;;;;;;;4987782;28;20129;-50
2024/01/06 07:02:33;;;;;;;10.65;6.65;;;;;;;;;;4991283;28;20413;-52
2024/01/06 07:04:59;;;;;;;16.30;7.70;;;3.90;99.90;;;;;;4992824;28;20042;-50
2024/01/06 07:07:24;;;;;;;11.57;7.70;;;;;;;;;;4991880;28;20130;-51
2024/01/06 07:09:50;;;;;;;11.82;7.22;;;;;;;;;;4990784;28;20036;-51
2024/01/06 07:12:16;;;;;;;12.40;6.97;;;;;;;;;;4992431;28;20034;-51
2024/01/06 07:14:42;;;;;;;13.98;7.07;;;;;;;;;;4990299;28;20634;-54
2024/01/06 07:17:08;;;;;;;12.38;7.40;;;;;;;;;;4990990;28;20097;-54
2024/01/06 07:19:35;;;;;;;15.00;7.72;;;;;;;;;;4991245;28;20048;-53
2024/01/06 07:22:01;;;;;;;15.02;7.90;;;;;;;;;;4988043;28;20386;-55
2024/01/06 07:24:27;;;;;;;12.57;8.85;;;;;;;;;;4987158;28;20096;-54
2024/01/06 07:26:52;;;;;;;14.52;8.75;;;4.00;99.90;;;;;;4986582;28;20043;-53
2024/01/06 07:29:18;;;;;;;12.98;8.10;;;4.00;99.90;;;;;;4991701;28;20163;-54
2024/01/06 07:31:45;;;;;;;12.70;7.43;;;;;;;;;;4991554;28;20045;-50
2024/01/06 07:34:11;;;;;;;19.48;7.93;;;;;;;;;;4988321;28;20057;-53
2024/01/06 07:36:38;;;;;;;15.40;8.18;;;;;;;;;;4989761;28;20509;-52
2024/01/06 07:39:04;;;;;;;15.20;8.48;;;3.90;99.90;;;;;;4987469;28;20597;-50
2024/01/06 07:41:31;;;;;;;14.73;8.15;;;;;;;;;;4987089;28;20410;-50
2024/01/06 07:43:57;;;;;;;15.90;8.93;;;4.00;99.90;;;;;;4985137;28;20445;-49
2024/01/06 07:46:23;;;;;;;12.82;7.97;;;;;;;;;;4988456;28;20196;-51
2024/01/06 07:48:49;;;;;;;11.18;8.45;;;;;;;;;;4990583;28;20062;-52
2024/01/06 07:51:15;;;;;;;13.98;7.90;;;;;;;;;;4990375;28;20265;-50
2024/01/06 07:53:42;;;;;;;13.55;7.88;;;;;;;;;;4983847;28;20719;-50
2024/01/06 07:56:08;;;;;;;16.27;8.77;;;;;;;;;;4987688;28;20049;-53
2024/01/06 07:58:34;;;;;;;14.43;8.40;;;;;;;;;;4986805;28;20049;-52
2024/01/06 08:01:01;;;;;;;13.05;7.90;;;;;;;;;;4988917;28;20045;-50
2024/01/06 08:03:27;;;;;;;14.55;7.55;;;;;;;;;;4989232;28;20042;-53
2024/01/06 08:05:54;;;;;;;11.07;7.35;;;;;;;;;;4990067;28;20046;-50
2024/01/06 08:08:20;;;;;;;11.68;7.90;;;;;;;;;;4989896;28;20043;-50
2024/01/06 08:10:46;;;;;;;12.32;8.05;;;;;;;;;;4990875;28;20046;-50
2024/01/06 08:13:12;;;;;;;12.35;7.32;;;;;;;;;;4990389;28;20093;-54
2024/01/06 08:15:38;;;;;;;15.50;8.23;;;4.00;99.90;;;;;;4989048;28;20042;-50
2024/01/06 08:18:04;;;;;;;13.50;7.25;;;;;;;;;;4991255;28;20061;-51
2024/01/06 08:20:30;;;;;;;13.30;8.18;;;;;;;;;;4986255;28;20042;-50
2024/01/06 08:22:56;;;;;;;12.75;8.13;;;;;;;;;;4987885;28;20085;-53
2024/01/06 08:25:22;;;;;;;17.65;8.93;;;;;;;;;;4988968;28;20387;-50
2024/01/06 08:27:48;;;;;;;17.00;9.27;;;;;;;;;;4987206;28;20073;-51
2024/01/06 08:30:14;;;;;;;12.05;7.70;;;;;;;;;;4985030;28;20030;-49
2024/01/06 08:32:40;;;;;;;15.07;8.55;;;;;;;;;;4989105;28;20053;-53
2024/01/06 08:35:07;;;;;;;13.65;7.80;;;;;;;;;;4990554;28;20041;-50
2024/01/06 08:37:33;;;;;;;14.20;7.90;;;;;;;;;;4988313;28;20100;-49
2024/01/06 08:39:58;;;;;;;13.60;8.00;;;4.10;99.90;;;;;;4990443;28;20045;-50
2024/01/06 08:42:25;;;;;;;13.90;8.27;;;4.10;99.90;;;;;;4991088;28;20413;-52
2024/01/06 08:44:51;;;;;;;14.07;8.15;;;;;;;;;;4990515;28;20046;-52
2024/01/06 08:47:17;;;;;;;14.40;8.07;;;;;;;;;;4991004;28;20100;-50
2024/01/06 08:49:43;;;;;;;13.43;7.78;;;4.10;99.90;;;;;;4989906;28;20063;-53
2024/01/06 08:52:09;;;;;;;14.07;8.07;;;;;;;;;;4991143;28;20034;-53
2024/01/06 08:54:35;;;;;;;12.68;7.97;;;;;;;;;;4990154;28;20042;-50
2024/01/06 08:57:01;;;;;;;11.57;7.57;;;;;;;;;;4989688;28;20509;-49
2024/01/06 08:59:27;;;;;;;12.88;7.75;;;;;;;;;;4989996;28;20042;-52
2024/01/06 09:01:53;;;;;;;15.18;8.43;;;;;;;;;;4985360;28;20050;-52
2024/01/06 09:04:19;;;;;;;16.55;8.80;;;;;;;;;;4984233;28;20450;-49
2024/01/06 09:06:46;;;;;;;13.13;7.38;;;;;;;;;;4986074;28;20133;-49
2024/01/06 09:09:13;;;;;;;15.35;8.70;;;;;;;;;;4979902;28;20101;-54
2024/01/06 09:11:38;;;;;;;12.85;7.55;;;4.00;99.90;;;;;;4984143;28;20097;-50
2024/01/06 09:14:04;;;;;;;13.02;8.45;;;4.10;99.90;;;;;;4990193;28;20034;-49
2024/01/06 09:16:30;;;;;;;14.38;8.15;;;;;;;;;;4988003;28;20573;-50
2024/01/06 09:18:57;;;;;;;12.38;7.82;;;;;;;;;;4984433;28;20042;-50
2024/01/06 09:21:23;;;;;;;14.50;8.43;;;4.20;99.90;;;;;;4988806;28;20045;-49
2024/01/06 09:23:49;;;;;;;18.10;9.73;;;;;;;;;;4989477;28;20039;-50
2024/01/06 09:26:16;;;;;;;15.25;8.45;;;;;;;;;;4985074;28;20402;-50
2024/01/06 09:28:42;;;;;;;13.60;8.43;;;;;;;;;;4984660;28;20129;-49
2024/01/06 09:31:08;;;;;;;14.35;8.82;;;;;;;;;;4986160;28;20499;-50
2024/01/06 09:33:34;;;;;;;17.92;10.30;;;;;;;;;;4975569;28;20062;-50
2024/01/06 09:36:00;;;;;;;14.10;9.60;;;;;;;;;;4968437;28;20129;-51
2024/01/06 09:38:26;;;;;;;18.38;9.57;;;;;;;;;;4981165;28;20081;-54
2024/01/06 09:40:53;;;;;;;17.15;8.93;;;4.90;99.90;;;;;;4987282;28;20096;-54
2024/01/06 09:43:19;;;;;;;14.65;9.02;;;4.10;99.90;;;;;;4981695;28;20458;-54
2024/01/06 09:45:50;;;;;;;20.02;9.80;;;;;;;;;;4984670;28;20023;-54
2024/01/06 09:48:17;;;;;;;16.15;9.35;;;;;;;;;;4981063;28;20045;-51
2024/01/06 09:50:46;;;;;;;14.52;9.75;;;3.60;99.90;;;;;;4987260;28;20421;-54
2024/01/06 09:53:12;;;;;;;14.23;9.50;;;;;;;;;;4982549;28;20035;-53
2024/01/06 09:55:39;;;;;;;14.65;9.35;;;;;;;;;;4987851;28;20414;-53
2024/01/06 09:58:06;;;;;;;14.93;9.23;;;;;;;;;;4977180;28;20405;-49
2024/01/06 10:00:32;;;;;;;13.07;8.85;;;;;;;;;;4978944;28;20077;-53
2024/01/06 10:02:58;;;;;;;14.18;9.23;;;;;;;;;;4986849;28;20068;-53
2024/01/06 10:05:24;;;;;;;17.10;9.05;;;;;;;;;;4976927;28;20084;-53
2024/01/06 10:07:50;;;;;;;12.68;8.15;;;;;;;;;;4987888;28;20414;-51
2024/01/06 10:10:16;;;;;;;16.73;9.68;;;;;;;;;;4977269;28;20039;-53
2024/01/06 10:12:43;;;;;;;14.50;8.05;;;;;;;;;;4985635;28;20035;-50
2024/01/06 10:15:11;;;;;;;17.05;9.30;;;4.80;99.90;;;;;;4978264;28;20086;-50
2024/01/06 10:17:41;;;;;;;11.98;7.75;;;;;;;;;;4987211;28;20041;-51
2024/01/06 10:20:11;;;;;;;17.02;8.88;;;4.40;99.90;;;;;;4980913;28;20038;-49
2024/01/06 10:22:38;;;;;;;14.50;8.73;;;;;;;;;;4983739;28;20126;-49
2024/01/06 10:25:07;;;;;;;12.55;8.25;;;;;;;;;;4984824;28;20042;-52
2024/01/06 10:27:40;;;;;;;12.43;8.00;;;;;;;;;;4979824;28;20088;-54
2024/01/06 10:30:07;;;;;;;15.40;8.40;;;4.30;99.90;;;;;;4987272;28;20034;-54
2024/01/06 10:32:33;;;;;;;16.73;8.65;;;;;;;;;;4979440;28;20096;-51
2024/01/06 10:35:03;;;;;;;13.05;8.38;;;;;;;;;;4984038;28;20042;-49
2024/01/06 10:37:30;;;;;;;13.60;8.35;;;4.30;99.90;;;;;;4979956;28;20089;-49
2024/01/06 10:40:12;;;;;;;12.80;8.02;;;;;;;;;;4988767;28;20505;-53
2024/01/06 10:42:39;;;;;;;13.23;8.32;;;;;;;;;;4984301;28;20078;-52
2024/01/06 10:45:09;;;;;;;14.75;8.23;;;;;;;;;;4990196;28;20038;-51
2024/01/06 10:47:35;;;;;;;13.52;8.13;;;;;;;;;;4985933;28;20039;-50
2024/01/06 10:50:01;;;;;;;14.60;8.05;;;;;;;;;;4989951;28;20081;-49
2024/01/06 10:52:31;;;;;;;14.65;7.93;;;4.60;99.90;;;;;;4983873;28;20078;-51
2024/01/06 10:54:57;;;;;;;13.63;7.85;;;;;;;;;;4990696;28;20049;-49
2024/01/06 10:57:24;;;;;;;12.90;7.43;;;4.30;99.90;;;;;;4992710;28;20137;-49
2024/01/06 10:59:50;;;;;;;11.85;7.43;;;;;;;;;;4990363;28;20035;-49
2024/01/06 11:02:17;;;;;;;13.25;7.65;;;;;;;;;;4992757;28;20273;-51
2024/01/06 11:04:45;;;;;;;13.55;8.63;;;;;;;;;;4992055;28;20120;-49
2024/01/06 11:07:11;;;;;;;14.98;8.20;;;;;;;;;;4987598;28;20045;-50
2024/01/06 11:09:45;;;;;;;13.60;7.95;;;4.70;99.90;;;;;;4985739;28;20548;-49
2024/01/06 11:12:10;;;;;;;12.13;7.55;;;4.50;99.90;;;;;;4991736;28;20108;-51
2024/01/06 11:14:37;;;;;;;15.63;8.23;;;;;;;;;;4992638;28;20066;-51
2024/01/06 11:17:04;;;;;;;12.20;7.65;;;;;;;;;;4989955;28;20525;-53
2024/01/06 11:19:37;;;;;;;12.85;8.05;;;;;;;;;;4991639;28;20564;-51
2024/01/06 11:22:19;;;;;;;13.07;7.40;;;;;;;;;;4988849;28;20038;-49
2024/01/06 11:24:49;;;;;;;16.77;8.38;;;;;;;;;;4983023;28;20042;-50
2024/01/06 11:27:28;;;;;;;14.30;7.95;;;;;;;;;;4988754;28;20038;-50
2024/01/06 11:29:58;;;;;;;12.85;6.97;;;;;;;;;;4988100;28;20039;-50
2024/01/06 11:32:35;;;;;;;12.65;6.68;;;4.50;99.90;;;;;;4992011;28;20034;-51
2024/01/06 11:35:09;;;;;;;12.07;7.45;;;;;;;;;;4990053;28;20046;-49
2024/01/06 11:37:40;;;;;;;10.87;7.00;;;4.60;99.90;;;;;;4991688;28;20050;-49
2024/01/06 11:40:13;;;;;;;13.82;7.50;;;;;;;;;;4990100;28;20337;-50
2024/01/06 11:42:42;;;;;;;13.65;8.20;;;;;;;;;;4990398;28;20046;-49
2024/01/06 11:45:08;;;;;;;11.65;7.18;;;;;;;;;;4991786;28;20073;-49
2024/01/06 11:47:35;;;;;;;10.52;7.07;;;;;;;;;;4991399;28;20042;-51
2024/01/06 11:50:05;;;;;;;12.23;7.03;;;4.70;99.90;;;;;;4991097;28;20038;-49
2024/01/06 11:52:34;;;;;;;15.90;7.72;;;;;;;;;;4990781;28;20030;-52
2024/01/06 11:55:01;;;;;;;13.18;6.95;;;;;;;;;;4991165;28;20046;-49
2024/01/06 11:57:27;;;;;;;12.25;7.75;;;;;;;;;;4991755;28;20046;-50
2024/01/06 11:59:53;;;;;;;12.90;7.55;;;;;;;;;;4990753;28;20038;-52
2024/01/06 12:02:22;;;;;;;14.15;8.43;;;;;;;;;;4991635;28;20042;-51
2024/01/06 12:04:49;;;;;;;13.40;7.97;;;;;;;;;;4991662;28;20050;-51
2024/01/06 12:07:16;;;;;;;11.98;7.07;;;;;;;;;;4991000;28;20149;-50
2024/01/06 12:09:42;;;;;;;10.15;6.47;;;;;;;;;;4991185;28;20034;-54
2024/01/06 12:12:09;;;;;;;9.90;6.35;;;4.30;99.90;;;;;;4991093;28;20038;-54
2024/01/06 12:14:35;;;;;;;10.25;6.38;;;;;;;;;;4991657;28;20348;-54
2024/01/06 12:17:02;;;;;;;9.75;6.03;;;;;;;;;;4990735;28;20053;-51
2024/01/06 12:19:33;;;;;;;11.00;6.22;;;3.80;99.90;;;;;;4991223;28;20078;-53
2024/01/06 12:21:59;;;;;;;9.88;5.72;;;;;;;;;;4991292;28;20050;-53
2024/01/06 12:24:27;;;;;;;9.68;5.70;;;;;;;;;;4991231;28;20073;-49
2024/01/06 12:26:55;;;;;;;9.80;5.72;;;;;;;;;;4991519;28;20104;-52
2024/01/06 12:29:21;;;;;;;9.93;6.18;;;4.30;99.90;;;;;;4989118;28;20454;-54
2024/01/06 12:31:46;;;;;;;12.05;6.38;;;4.20;99.90;;;;;;4991153;28;20042;-50
2024/01/06 12:34:13;;;;;;;12.35;6.40;;;;;;;;;;4990713;28;20046;-51
2024/01/06 12:36:39;;;;;;;9.75;6.30;;;;;;;;;;4991249;28;20046;-50
2024/01/06 12:39:05;;;;;;;12.48;6.05;;;4.30;99.90;;;;;;4989996;28;20038;-50
2024/01/06 12:41:34;;;;;;;10.77;7.00;;;;;;;;;;4991185;28;20038;-51
2024/01/06 12:44:00;;;;;;;9.40;6.50;;;4.40;99.90;;;;;;4990593;28;20569;-50
2024/01/06 12:46:27;;;;;;;11.35;6.18;;;;;;;;;;4988753;28;20144;-51
2024/01/06 12:48:52;;;;;;;12.57;6.60;;;4.40;99.90;;;;;;4990805;28;20069;-52
2024/01/06 12:51:18;;;;;;;11.50;7.28;;;4.20;99.90;;;;;;4990049;28;20060;-49
2024/01/06 12:53:44;;;;;;;9.80;5.85;;;;;;;;;;4990774;28;20037;-49
2024/01/06 12:56:10;;;;;;;12.93;6.35;;;;;;;;;;4990297;28;20038;-51
2024/01/06 12:58:36;;;;;;;9.65;6.07;;;;;;;;;;4990073;28;20430;-50
2024/01/06 13:01:02;;;;;;;10.02;5.82;;;;;;;;;;4990543;28;20106;-50
2024/01/06 13:03:28;;;;;;;10.93;6.35;;;;;;;;;;4990639;28;20046;-51
2024/01/06 13:05:55;;;;;;;8.95;5.38;;;;;;;;;;4990727;28;20115;-49
2024/01/06 13:08:21;;;;;;;9.35;5.43;;;;;;;;;;4989277;28;20049;-49
2024/01/06 13:10:46;;;;;;;9.43;5.82;;;4.20;99.90;;;;;;4990376;28;20070;-49
2024/01/06 13:13:12;;;;;;;7.95;4.88;;;;;;;;;;4989942;28;20036;-53
2024/01/06 13:15:38;;;;;;;8.75;4.78;;;;;;;;;;4990569;28;20058;-49
2024/01/06 13:18:04;;;;;;;9.05;5.20;;;;;;;;;;4987331;28;20046;-52
2024/01/06 13:20:30;;;;;;;8.27;5.35;;;4.40;99.90;;;;;;4985740;28;20041;-54
2024/01/06 13:22:56;;;;;;;9.98;5.55;;;;;;;;;;4984012;28;20652;-54
2024/01/06 13:25:22;;;;;;;8.98;5.50;;;;;;;;;;4989264;28;20038;-53
2024/01/06 13:27:50;;;;;;;8.07;5.22;;;4.30;99.90;;;;;;4985220;28;20066;-54
2024/01/06 13:30:16;;;;;;;10.35;5.80;;;4.30;99.90;;;;;;4984944;28;20402;-53
2024/01/06 13:32:43;;;;;;;8.93;5.18;;;;;;;;;;4987967;28;20034;-51
2024/01/06 13:35:11;;;;;;;10.68;5.50;;;;;;;;;;4989629;28;20077;-50
2024/01/06 13:37:37;;;;;;;9.65;5.38;;;4.50;99.90;;;;;;4987623;28;20430;-49
2024/01/06 13:40:03;;;;;;;8.27;4.80;;;4.50;99.90;;;;;;4988782;28;20038;-50
2024/01/06 13:42:29;;;;;;;9.35;5.18;;;4.40;99.90;;;;;;4988435;28;20053;-50
2024/01/06 13:44:54;;;;;;;9.43;5.53;;;4.40;99.90;;;;;;4986486;28;20046;-50
2024/01/06 13:47:20;;;;;;;9.95;5.60;;;;;;;;;;4985653;28;20035;-52
2024/01/06 13:49:46;;;;;;;8.73;5.38;;;;;;;;;;4981318;28;20042;-52
2024/01/06 13:52:12;;;;;;;10.45;6.35;;;;;;;;;;4979775;28;20043;-50
2024/01/06 13:54:38;;;;;;;9.82;5.70;;;;;;;;;;4984738;28;20505;-50
2024/01/06 13:57:04;;;;;;;11.18;5.97;;;;;;;;;;4986057;28;20080;-51
2024/01/06 13:59:30;;;;;;;11.13;6.43;;;;;;;;;;4985034;28;20034;-50